sensor_id;sensor_type;location;lat;lon;timestamp;P1;durP1;ratioP1;P2;durP2;ratioP2
55007;SDS011;40902;45.116;21.296;2022-12-29T00:01:29;9.45;;;5.75;;
55007;SDS011;40902;45.116;21.296;2022-12-29T00:03:56;8.70;;;6.20;;
55007;SDS011;40902;45.116;21.296;2022-12-29T00:06:21;10.38;;;5.95;;
55007;SDS011;40902;45.116;21.296;2022-12-29T00:08:47;10.50;;;6.40;;
55007;SDS011;40902;45.116;21.296;2022-12-29T00:11:15;8.90;;;5.57;;
55007;SDS011;40902;45.116;21.296;2022-12-29T00:13:42;11.50;;;5.85;;
55007;SDS011;40902;45.116;21.296;2022-12-29T00:16:27;13.25;;;6.90;;
55007;SDS011;40902;45.116;21.296;2022-12-29T00:18:54;8.35;;;5.43;;
55007;SDS011;40902;45.116;21.296;2022-12-29T00:21:20;12.70;;;5.90;;
55007;SDS011;40902;45.116;21.296;2022-12-29T00:24:06;12.00;;;6.00;;
55007;SDS011;40902;45.116;21.296;2022-12-29T00:29:47;12.13;;;5.93;;
55007;SDS011;40902;45.116;21.296;2022-12-29T00:32:34;12.82;;;6.13;;
55007;SDS011;40902;45.116;21.296;2022-12-29T00:35:27;10.25;;;5.72;;
55007;SDS011;40902;45.116;21.296;2022-12-29T00:38:01;13.48;;;6.07;;
55007;SDS011;40902;45.116;21.296;2022-12-29T00:40:47;11.88;;;6.07;;
55007;SDS011;40902;45.116;21.296;2022-12-29T00:46:15;9.05;;;5.75;;
55007;SDS011;40902;45.116;21.296;2022-12-29T00:48:41;9.10;;;5.30;;
55007;SDS011;40902;45.116;21.296;2022-12-29T00:53:51;13.82;;;6.60;;
55007;SDS011;40902;45.116;21.296;2022-12-29T00:56:17;11.10;;;5.78;;
55007;SDS011;40902;45.116;21.296;2022-12-29T00:58:42;9.75;;;6.25;;
55007;SDS011;40902;45.116;21.296;2022-12-29T01:01:08;10.07;;;5.88;;
55007;SDS011;40902;45.116;21.296;2022-12-29T01:03:34;9.02;;;5.38;;
55007;SDS011;40902;45.116;21.296;2022-12-29T01:06:01;10.65;;;5.65;;
55007;SDS011;40902;45.116;21.296;2022-12-29T01:08:28;9.38;;;5.63;;
55007;SDS011;40902;45.116;21.296;2022-12-29T01:11:05;9.30;;;5.57;;
55007;SDS011;40902;45.116;21.296;2022-12-29T01:13:35;9.20;;;5.05;;
55007;SDS011;40902;45.116;21.296;2022-12-29T01:16:03;11.27;;;5.82;;
55007;SDS011;40902;45.116;21.296;2022-12-29T01:18:31;9.80;;;5.60;;
55007;SDS011;40902;45.116;21.296;2022-12-29T01:21:01;9.90;;;6.10;;
55007;SDS011;40902;45.116;21.296;2022-12-29T01:23:31;8.60;;;5.53;;
55007;SDS011;40902;45.116;21.296;2022-12-29T01:25:57;12.93;;;5.45;;
55007;SDS011;40902;45.116;21.296;2022-12-29T01:28:34;9.68;;;5.47;;
55007;SDS011;40902;45.116;21.296;2022-12-29T01:31:00;10.52;;;5.85;;
55007;SDS011;40902;45.116;21.296;2022-12-29T01:33:26;9.90;;;6.88;;
55007;SDS011;40902;45.116;21.296;2022-12-29T01:35:51;10.73;;;5.90;;
55007;SDS011;40902;45.116;21.296;2022-12-29T01:38:17;10.30;;;5.88;;
55007;SDS011;40902;45.116;21.296;2022-12-29T01:40:46;8.63;;;5.28;;
55007;SDS011;40902;45.116;21.296;2022-12-29T01:43:12;8.95;;;5.85;;
55007;SDS011;40902;45.116;21.296;2022-12-29T01:45:42;8.20;;;5.38;;
55007;SDS011;40902;45.116;21.296;2022-12-29T01:48:12;9.38;;;5.53;;
55007;SDS011;40902;45.116;21.296;2022-12-29T01:50:41;12.82;;;6.07;;
55007;SDS011;40902;45.116;21.296;2022-12-29T01:53:26;10.98;;;6.20;;
55007;SDS011;40902;45.116;21.296;2022-12-29T01:55:56;9.93;;;5.35;;
55007;SDS011;40902;45.116;21.296;2022-12-29T01:58:27;7.93;;;5.28;;
55007;SDS011;40902;45.116;21.296;2022-12-29T02:00:57;9.35;;;6.15;;
55007;SDS011;40902;45.116;21.296;2022-12-29T02:03:24;11.05;;;6.03;;
55007;SDS011;40902;45.116;21.296;2022-12-29T02:05:56;10.30;;;5.55;;
55007;SDS011;40902;45.116;21.296;2022-12-29T02:08:35;10.88;;;6.03;;
55007;SDS011;40902;45.116;21.296;2022-12-29T02:11:02;9.07;;;5.55;;
55007;SDS011;40902;45.116;21.296;2022-12-29T02:13:28;9.23;;;5.65;;
55007;SDS011;40902;45.116;21.296;2022-12-29T02:30:09;10.23;;;5.60;;
55007;SDS011;40902;45.116;21.296;2022-12-29T02:32:45;10.85;;;5.90;;
55007;SDS011;40902;45.116;21.296;2022-12-29T02:42:51;9.02;;;6.18;;
55007;SDS011;40902;45.116;21.296;2022-12-29T02:50:44;12.02;;;6.35;;
55007;SDS011;40902;45.116;21.296;2022-12-29T02:53:22;11.30;;;5.38;;
55007;SDS011;40902;45.116;21.296;2022-12-29T02:56:08;10.02;;;6.55;;
55007;SDS011;40902;45.116;21.296;2022-12-29T02:58:34;12.38;;;6.40;;
55007;SDS011;40902;45.116;21.296;2022-12-29T03:03:44;9.32;;;5.15;;
55007;SDS011;40902;45.116;21.296;2022-12-29T03:06:25;10.07;;;5.28;;
55007;SDS011;40902;45.116;21.296;2022-12-29T03:15:10;9.23;;;5.95;;
55007;SDS011;40902;45.116;21.296;2022-12-29T03:18:05;11.35;;;6.30;;
55007;SDS011;40902;45.116;21.296;2022-12-29T03:20:39;10.45;;;5.68;;
55007;SDS011;40902;45.116;21.296;2022-12-29T03:23:12;11.75;;;5.93;;
55007;SDS011;40902;45.116;21.296;2022-12-29T03:25:48;10.15;;;5.55;;
55007;SDS011;40902;45.116;21.296;2022-12-29T03:28:22;9.65;;;5.60;;
55007;SDS011;40902;45.116;21.296;2022-12-29T03:30:50;9.57;;;5.40;;
55007;SDS011;40902;45.116;21.296;2022-12-29T03:33:21;8.30;;;5.15;;
55007;SDS011;40902;45.116;21.296;2022-12-29T03:35:50;11.02;;;6.15;;
55007;SDS011;40902;45.116;21.296;2022-12-29T03:38:27;11.27;;;5.38;;
55007;SDS011;40902;45.116;21.296;2022-12-29T03:40:56;12.00;;;6.20;;
55007;SDS011;40902;45.116;21.296;2022-12-29T03:43:24;10.70;;;6.05;;
55007;SDS011;40902;45.116;21.296;2022-12-29T03:45:51;9.38;;;5.43;;
55007;SDS011;40902;45.116;21.296;2022-12-29T03:48:17;8.25;;;5.22;;
55007;SDS011;40902;45.116;21.296;2022-12-29T03:50:43;8.20;;;4.90;;
55007;SDS011;40902;45.116;21.296;2022-12-29T03:53:08;10.40;;;5.53;;
55007;SDS011;40902;45.116;21.296;2022-12-29T03:55:34;10.65;;;5.35;;
55007;SDS011;40902;45.116;21.296;2022-12-29T03:58:00;10.63;;;5.30;;
55007;SDS011;40902;45.116;21.296;2022-12-29T04:00:25;10.68;;;5.50;;
55007;SDS011;40902;45.116;21.296;2022-12-29T04:02:51;8.43;;;5.20;;
55007;SDS011;40902;45.116;21.296;2022-12-29T04:05:17;9.02;;;4.65;;
55007;SDS011;40902;45.116;21.296;2022-12-29T04:07:43;8.75;;;5.13;;
55007;SDS011;40902;45.116;21.296;2022-12-29T04:10:08;11.50;;;5.85;;
55007;SDS011;40902;45.116;21.296;2022-12-29T04:12:34;9.23;;;5.70;;
55007;SDS011;40902;45.116;21.296;2022-12-29T04:15:00;8.00;;;5.10;;
55007;SDS011;40902;45.116;21.296;2022-12-29T04:17:25;9.82;;;5.75;;
55007;SDS011;40902;45.116;21.296;2022-12-29T04:19:51;10.10;;;5.57;;
55007;SDS011;40902;45.116;21.296;2022-12-29T04:22:37;8.95;;;5.63;;
55007;SDS011;40902;45.116;21.296;2022-12-29T04:25:02;9.60;;;5.65;;
55007;SDS011;40902;45.116;21.296;2022-12-29T04:27:28;11.60;;;6.47;;
55007;SDS011;40902;45.116;21.296;2022-12-29T04:29:54;10.98;;;5.50;;
55007;SDS011;40902;45.116;21.296;2022-12-29T04:32:19;11.30;;;5.45;;
55007;SDS011;40902;45.116;21.296;2022-12-29T04:34:46;9.45;;;5.80;;
55007;SDS011;40902;45.116;21.296;2022-12-29T04:37:12;10.18;;;5.75;;
55007;SDS011;40902;45.116;21.296;2022-12-29T04:39:38;10.07;;;6.05;;
55007;SDS011;40902;45.116;21.296;2022-12-29T04:42:03;11.90;;;6.15;;
55007;SDS011;40902;45.116;21.296;2022-12-29T04:44:29;8.27;;;5.38;;
55007;SDS011;40902;45.116;21.296;2022-12-29T04:46:55;8.20;;;4.88;;
55007;SDS011;40902;45.116;21.296;2022-12-29T04:49:20;10.93;;;5.45;;
55007;SDS011;40902;45.116;21.296;2022-12-29T04:51:46;8.63;;;5.53;;
55007;SDS011;40902;45.116;21.296;2022-12-29T04:54:12;8.95;;;5.28;;
55007;SDS011;40902;45.116;21.296;2022-12-29T04:56:37;10.10;;;6.30;;
55007;SDS011;40902;45.116;21.296;2022-12-29T04:59:03;9.93;;;5.40;;
55007;SDS011;40902;45.116;21.296;2022-12-29T05:01:29;9.13;;;5.20;;
55007;SDS011;40902;45.116;21.296;2022-12-29T05:03:55;10.82;;;6.10;;
55007;SDS011;40902;45.116;21.296;2022-12-29T05:06:20;9.88;;;5.15;;
55007;SDS011;40902;45.116;21.296;2022-12-29T05:08:46;11.93;;;5.72;;
55007;SDS011;40902;45.116;21.296;2022-12-29T05:11:12;10.23;;;5.47;;
55007;SDS011;40902;45.116;21.296;2022-12-29T05:13:37;9.80;;;5.80;;
55007;SDS011;40902;45.116;21.296;2022-12-29T05:16:03;9.35;;;5.60;;
55007;SDS011;40902;45.116;21.296;2022-12-29T05:18:29;10.40;;;6.00;;
55007;SDS011;40902;45.116;21.296;2022-12-29T05:20:55;10.25;;;5.82;;
55007;SDS011;40902;45.116;21.296;2022-12-29T05:23:20;10.73;;;5.40;;
55007;SDS011;40902;45.116;21.296;2022-12-29T05:25:46;7.72;;;5.18;;
55007;SDS011;40902;45.116;21.296;2022-12-29T05:28:12;10.82;;;5.35;;
55007;SDS011;40902;45.116;21.296;2022-12-29T05:30:38;7.28;;;4.63;;
55007;SDS011;40902;45.116;21.296;2022-12-29T05:33:04;9.07;;;5.32;;
55007;SDS011;40902;45.116;21.296;2022-12-29T05:35:31;9.35;;;5.30;;
55007;SDS011;40902;45.116;21.296;2022-12-29T05:37:57;12.13;;;5.35;;
55007;SDS011;40902;45.116;21.296;2022-12-29T05:40:23;7.85;;;4.65;;
55007;SDS011;40902;45.116;21.296;2022-12-29T05:42:49;8.80;;;5.88;;
55007;SDS011;40902;45.116;21.296;2022-12-29T05:45:14;9.70;;;5.50;;
55007;SDS011;40902;45.116;21.296;2022-12-29T05:47:40;11.30;;;5.72;;
55007;SDS011;40902;45.116;21.296;2022-12-29T05:50:06;10.23;;;5.40;;
55007;SDS011;40902;45.116;21.296;2022-12-29T05:52:32;10.30;;;6.30;;
55007;SDS011;40902;45.116;21.296;2022-12-29T05:54:58;9.98;;;5.75;;
55007;SDS011;40902;45.116;21.296;2022-12-29T05:57:23;9.77;;;5.30;;
55007;SDS011;40902;45.116;21.296;2022-12-29T05:59:49;8.48;;;5.22;;
55007;SDS011;40902;45.116;21.296;2022-12-29T06:02:15;10.65;;;5.68;;
55007;SDS011;40902;45.116;21.296;2022-12-29T06:04:40;8.23;;;5.07;;
55007;SDS011;40902;45.116;21.296;2022-12-29T06:07:06;8.10;;;5.10;;
55007;SDS011;40902;45.116;21.296;2022-12-29T06:09:32;9.98;;;5.30;;
55007;SDS011;40902;45.116;21.296;2022-12-29T06:11:57;10.27;;;5.40;;
55007;SDS011;40902;45.116;21.296;2022-12-29T06:14:23;10.38;;;5.03;;
55007;SDS011;40902;45.116;21.296;2022-12-29T06:16:49;9.85;;;5.57;;
55007;SDS011;40902;45.116;21.296;2022-12-29T06:19:14;9.82;;;5.78;;
55007;SDS011;40902;45.116;21.296;2022-12-29T06:21:40;8.57;;;5.45;;
55007;SDS011;40902;45.116;21.296;2022-12-29T06:24:06;10.13;;;5.30;;
55007;SDS011;40902;45.116;21.296;2022-12-29T06:26:32;9.32;;;5.70;;
55007;SDS011;40902;45.116;21.296;2022-12-29T06:28:57;10.63;;;6.05;;
55007;SDS011;40902;45.116;21.296;2022-12-29T06:31:23;10.40;;;5.90;;
55007;SDS011;40902;45.116;21.296;2022-12-29T06:33:49;11.10;;;6.13;;
55007;SDS011;40902;45.116;21.296;2022-12-29T06:36:14;10.57;;;5.65;;
55007;SDS011;40902;45.116;21.296;2022-12-29T06:38:40;9.43;;;5.53;;
55007;SDS011;40902;45.116;21.296;2022-12-29T06:41:06;8.18;;;5.20;;
55007;SDS011;40902;45.116;21.296;2022-12-29T06:43:31;8.57;;;5.18;;
55007;SDS011;40902;45.116;21.296;2022-12-29T06:45:58;10.70;;;6.28;;
55007;SDS011;40902;45.116;21.296;2022-12-29T06:48:24;10.48;;;5.63;;
55007;SDS011;40902;45.116;21.296;2022-12-29T06:50:50;10.40;;;5.88;;
55007;SDS011;40902;45.116;21.296;2022-12-29T06:53:15;11.65;;;6.20;;
55007;SDS011;40902;45.116;21.296;2022-12-29T06:55:41;9.55;;;5.88;;
55007;SDS011;40902;45.116;21.296;2022-12-29T06:58:07;10.68;;;6.13;;
55007;SDS011;40902;45.116;21.296;2022-12-29T07:00:33;8.13;;;5.18;;
55007;SDS011;40902;45.116;21.296;2022-12-29T07:02:59;9.30;;;5.72;;
55007;SDS011;40902;45.116;21.296;2022-12-29T07:05:25;8.65;;;5.68;;
55007;SDS011;40902;45.116;21.296;2022-12-29T07:07:53;8.85;;;5.70;;
55007;SDS011;40902;45.116;21.296;2022-12-29T07:10:21;11.65;;;6.07;;
55007;SDS011;40902;45.116;21.296;2022-12-29T07:12:51;10.50;;;5.57;;
55007;SDS011;40902;45.116;21.296;2022-12-29T07:15:17;9.38;;;5.93;;
55007;SDS011;40902;45.116;21.296;2022-12-29T07:17:43;8.50;;;5.30;;
55007;SDS011;40902;45.116;21.296;2022-12-29T07:20:08;8.23;;;5.60;;
55007;SDS011;40902;45.116;21.296;2022-12-29T07:22:35;8.68;;;5.35;;
55007;SDS011;40902;45.116;21.296;2022-12-29T07:25:01;9.93;;;6.28;;
55007;SDS011;40902;45.116;21.296;2022-12-29T07:27:28;10.82;;;6.25;;
55007;SDS011;40902;45.116;21.296;2022-12-29T07:29:54;9.70;;;6.20;;
55007;SDS011;40902;45.116;21.296;2022-12-29T07:32:19;10.63;;;6.25;;
55007;SDS011;40902;45.116;21.296;2022-12-29T07:34:45;11.13;;;5.50;;
55007;SDS011;40902;45.116;21.296;2022-12-29T07:37:12;12.05;;;6.03;;
55007;SDS011;40902;45.116;21.296;2022-12-29T07:39:40;12.27;;;6.63;;
55007;SDS011;40902;45.116;21.296;2022-12-29T07:42:05;10.32;;;6.22;;
55007;SDS011;40902;45.116;21.296;2022-12-29T07:44:31;10.85;;;6.50;;
55007;SDS011;40902;45.116;21.296;2022-12-29T07:46:57;10.63;;;5.82;;
55007;SDS011;40902;45.116;21.296;2022-12-29T07:49:23;12.90;;;6.20;;
55007;SDS011;40902;45.116;21.296;2022-12-29T07:51:49;10.57;;;5.72;;
55007;SDS011;40902;45.116;21.296;2022-12-29T07:54:14;12.02;;;5.85;;
55007;SDS011;40902;45.116;21.296;2022-12-29T07:56:43;10.63;;;6.47;;
55007;SDS011;40902;45.116;21.296;2022-12-29T07:59:09;8.48;;;5.70;;
55007;SDS011;40902;45.116;21.296;2022-12-29T08:01:37;11.60;;;6.32;;
55007;SDS011;40902;45.116;21.296;2022-12-29T08:04:03;9.57;;;5.40;;
55007;SDS011;40902;45.116;21.296;2022-12-29T08:06:29;9.52;;;5.68;;
55007;SDS011;40902;45.116;21.296;2022-12-29T08:08:55;11.20;;;6.68;;
55007;SDS011;40902;45.116;21.296;2022-12-29T08:11:22;11.23;;;6.53;;
55007;SDS011;40902;45.116;21.296;2022-12-29T08:13:48;12.30;;;6.43;;
55007;SDS011;40902;45.116;21.296;2022-12-29T08:16:14;15.02;;;8.30;;
55007;SDS011;40902;45.116;21.296;2022-12-29T08:18:40;13.23;;;7.75;;
55007;SDS011;40902;45.116;21.296;2022-12-29T08:21:06;10.45;;;6.63;;
55007;SDS011;40902;45.116;21.296;2022-12-29T08:23:32;11.05;;;7.25;;
55007;SDS011;40902;45.116;21.296;2022-12-29T08:26:02;11.20;;;6.18;;
55007;SDS011;40902;45.116;21.296;2022-12-29T08:28:29;14.85;;;8.95;;
55007;SDS011;40902;45.116;21.296;2022-12-29T08:30:59;13.98;;;7.78;;
55007;SDS011;40902;45.116;21.296;2022-12-29T08:33:26;15.52;;;9.60;;
55007;SDS011;40902;45.116;21.296;2022-12-29T08:35:54;21.38;;;10.65;;
55007;SDS011;40902;45.116;21.296;2022-12-29T08:38:30;18.35;;;8.15;;
55007;SDS011;40902;45.116;21.296;2022-12-29T08:40:56;17.73;;;10.73;;
55007;SDS011;40902;45.116;21.296;2022-12-29T08:43:23;14.23;;;7.55;;
55007;SDS011;40902;45.116;21.296;2022-12-29T08:45:49;13.45;;;7.85;;
55007;SDS011;40902;45.116;21.296;2022-12-29T08:48:15;14.35;;;7.30;;
55007;SDS011;40902;45.116;21.296;2022-12-29T08:50:47;10.23;;;6.35;;
55007;SDS011;40902;45.116;21.296;2022-12-29T08:53:13;13.45;;;7.45;;
55007;SDS011;40902;45.116;21.296;2022-12-29T08:55:39;11.25;;;6.00;;
55007;SDS011;40902;45.116;21.296;2022-12-29T08:58:05;9.55;;;6.07;;
55007;SDS011;40902;45.116;21.296;2022-12-29T09:00:30;10.00;;;6.05;;
55007;SDS011;40902;45.116;21.296;2022-12-29T09:02:56;11.77;;;6.70;;
55007;SDS011;40902;45.116;21.296;2022-12-29T09:05:22;12.35;;;7.95;;
55007;SDS011;40902;45.116;21.296;2022-12-29T09:07:48;15.55;;;7.35;;
55007;SDS011;40902;45.116;21.296;2022-12-29T09:10:13;10.55;;;6.47;;
55007;SDS011;40902;45.116;21.296;2022-12-29T09:12:39;12.27;;;6.90;;
55007;SDS011;40902;45.116;21.296;2022-12-29T09:15:05;11.95;;;6.57;;
55007;SDS011;40902;45.116;21.296;2022-12-29T09:17:31;11.00;;;7.10;;
55007;SDS011;40902;45.116;21.296;2022-12-29T09:20:12;12.02;;;6.50;;
55007;SDS011;40902;45.116;21.296;2022-12-29T09:22:39;12.63;;;7.15;;
55007;SDS011;40902;45.116;21.296;2022-12-29T09:25:05;11.02;;;6.30;;
55007;SDS011;40902;45.116;21.296;2022-12-29T09:27:31;12.75;;;7.30;;
55007;SDS011;40902;45.116;21.296;2022-12-29T09:29:57;12.50;;;7.00;;
55007;SDS011;40902;45.116;21.296;2022-12-29T09:32:23;14.23;;;7.35;;
55007;SDS011;40902;45.116;21.296;2022-12-29T09:34:49;15.73;;;9.00;;
55007;SDS011;40902;45.116;21.296;2022-12-29T09:37:15;14.48;;;8.35;;
55007;SDS011;40902;45.116;21.296;2022-12-29T09:39:40;12.65;;;7.32;;
55007;SDS011;40902;45.116;21.296;2022-12-29T09:42:08;12.23;;;6.95;;
55007;SDS011;40902;45.116;21.296;2022-12-29T09:47:34;13.25;;;7.25;;
55007;SDS011;40902;45.116;21.296;2022-12-29T09:52:52;16.50;;;8.40;;
55007;SDS011;40902;45.116;21.296;2022-12-29T09:55:31;10.52;;;7.50;;
55007;SDS011;40902;45.116;21.296;2022-12-29T09:58:09;11.63;;;7.30;;
55007;SDS011;40902;45.116;21.296;2022-12-29T10:03:24;11.38;;;7.38;;
55007;SDS011;40902;45.116;21.296;2022-12-29T10:08:37;15.30;;;7.90;;
55007;SDS011;40902;45.116;21.296;2022-12-29T10:25:54;13.50;;;8.35;;
55007;SDS011;40902;45.116;21.296;2022-12-29T10:28:44;19.73;;;8.77;;
55007;SDS011;40902;45.116;21.296;2022-12-29T10:31:40;13.18;;;8.27;;
55007;SDS011;40902;45.116;21.296;2022-12-29T10:34:25;16.80;;;8.63;;
55007;SDS011;40902;45.116;21.296;2022-12-29T10:37:45;14.05;;;9.43;;
55007;SDS011;40902;45.116;21.296;2022-12-29T10:40:00;13.02;;;8.00;;
55007;SDS011;40902;45.116;21.296;2022-12-29T10:42:40;11.98;;;8.25;;
55007;SDS011;40902;45.116;21.296;2022-12-29T10:45:11;17.58;;;9.65;;
55007;SDS011;40902;45.116;21.296;2022-12-29T10:47:42;15.43;;;9.77;;
55007;SDS011;40902;45.116;21.296;2022-12-29T10:50:25;13.57;;;9.25;;
55007;SDS011;40902;45.116;21.296;2022-12-29T10:52:52;13.98;;;9.23;;
55007;SDS011;40902;45.116;21.296;2022-12-29T10:55:21;14.20;;;9.20;;
55007;SDS011;40902;45.116;21.296;2022-12-29T10:57:53;13.37;;;8.93;;
55007;SDS011;40902;45.116;21.296;2022-12-29T11:00:20;16.25;;;9.40;;
55007;SDS011;40902;45.116;21.296;2022-12-29T11:03:07;14.05;;;9.00;;
55007;SDS011;40902;45.116;21.296;2022-12-29T11:08:49;14.35;;;9.07;;
55007;SDS011;40902;45.116;21.296;2022-12-29T11:11:45;16.30;;;9.10;;
55007;SDS011;40902;45.116;21.296;2022-12-29T11:14:18;15.25;;;9.20;;
55007;SDS011;40902;45.116;21.296;2022-12-29T11:17:01;15.13;;;8.55;;
55007;SDS011;40902;45.116;21.296;2022-12-29T11:19:30;11.82;;;8.63;;
55007;SDS011;40902;45.116;21.296;2022-12-29T11:22:20;12.27;;;8.27;;
55007;SDS011;40902;45.116;21.296;2022-12-29T11:24:49;13.23;;;8.50;;
55007;SDS011;40902;45.116;21.296;2022-12-29T11:27:24;14.07;;;8.75;;
55007;SDS011;40902;45.116;21.296;2022-12-29T11:29:51;13.70;;;9.52;;
55007;SDS011;40902;45.116;21.296;2022-12-29T11:32:22;12.85;;;8.27;;
55007;SDS011;40902;45.116;21.296;2022-12-29T11:34:50;15.43;;;9.27;;
55007;SDS011;40902;45.116;21.296;2022-12-29T11:37:16;14.80;;;9.00;;
55007;SDS011;40902;45.116;21.296;2022-12-29T11:42:28;15.82;;;9.48;;
55007;SDS011;40902;45.116;21.296;2022-12-29T11:45:06;14.90;;;9.60;;
55007;SDS011;40902;45.116;21.296;2022-12-29T11:47:42;15.48;;;9.73;;
55007;SDS011;40902;45.116;21.296;2022-12-29T11:50:16;14.50;;;9.73;;
55007;SDS011;40902;45.116;21.296;2022-12-29T11:52:57;13.70;;;9.35;;
55007;SDS011;40902;45.116;21.296;2022-12-29T11:56:20;16.80;;;10.35;;
55007;SDS011;40902;45.116;21.296;2022-12-29T11:58:42;13.65;;;9.40;;
55007;SDS011;40902;45.116;21.296;2022-12-29T12:01:41;15.15;;;8.55;;
55007;SDS011;40902;45.116;21.296;2022-12-29T12:04:18;13.38;;;9.48;;
55007;SDS011;40902;45.116;21.296;2022-12-29T12:12:21;16.20;;;9.27;;
55007;SDS011;40902;45.116;21.296;2022-12-29T12:14:54;15.48;;;9.80;;
55007;SDS011;40902;45.116;21.296;2022-12-29T12:17:37;15.32;;;10.80;;
55007;SDS011;40902;45.116;21.296;2022-12-29T12:25:21;14.55;;;9.63;;
55007;SDS011;40902;45.116;21.296;2022-12-29T12:30:43;15.20;;;9.45;;
55007;SDS011;40902;45.116;21.296;2022-12-29T12:44:11;13.77;;;9.88;;
55007;SDS011;40902;45.116;21.296;2022-12-29T12:49:41;15.45;;;10.45;;
55007;SDS011;40902;45.116;21.296;2022-12-29T12:57:15;16.65;;;11.50;;
55007;SDS011;40902;45.116;21.296;2022-12-29T13:02:18;15.52;;;11.13;;
55007;SDS011;40902;45.116;21.296;2022-12-29T13:15:50;20.83;;;12.23;;
55007;SDS011;40902;45.116;21.296;2022-12-29T13:20:53;23.27;;;14.25;;
55007;SDS011;40902;45.116;21.296;2022-12-29T13:23:23;23.10;;;13.45;;
55007;SDS011;40902;45.116;21.296;2022-12-29T13:38:51;17.30;;;12.35;;
55007;SDS011;40902;45.116;21.296;2022-12-29T13:44:07;16.70;;;12.75;;
55007;SDS011;40902;45.116;21.296;2022-12-29T13:46:37;27.27;;;17.98;;
55007;SDS011;40902;45.116;21.296;2022-12-29T13:49:06;36.42;;;32.03;;
55007;SDS011;40902;45.116;21.296;2022-12-29T13:51:33;18.63;;;13.73;;
55007;SDS011;40902;45.116;21.296;2022-12-29T13:56:28;17.63;;;13.43;;
55007;SDS011;40902;45.116;21.296;2022-12-29T14:01:46;14.73;;;11.45;;
55007;SDS011;40902;45.116;21.296;2022-12-29T14:04:14;19.70;;;12.90;;
55007;SDS011;40902;45.116;21.296;2022-12-29T14:06:46;14.50;;;10.45;;
55007;SDS011;40902;45.116;21.296;2022-12-29T14:11:58;14.52;;;9.25;;
55007;SDS011;40902;45.116;21.296;2022-12-29T14:14:25;16.42;;;10.52;;
55007;SDS011;40902;45.116;21.296;2022-12-29T14:16:53;14.70;;;9.13;;
55007;SDS011;40902;45.116;21.296;2022-12-29T14:19:21;18.75;;;13.90;;
55007;SDS011;40902;45.116;21.296;2022-12-29T14:21:50;14.60;;;10.48;;
55007;SDS011;40902;45.116;21.296;2022-12-29T14:24:59;14.68;;;9.63;;
55007;SDS011;40902;45.116;21.296;2022-12-29T14:34:47;28.42;;;18.88;;
55007;SDS011;40902;45.116;21.296;2022-12-29T14:37:27;28.50;;;15.30;;
55007;SDS011;40902;45.116;21.296;2022-12-29T14:40:16;20.30;;;13.60;;
55007;SDS011;40902;45.116;21.296;2022-12-29T14:42:39;20.90;;;13.25;;
55007;SDS011;40902;45.116;21.296;2022-12-29T14:47:48;16.92;;;11.77;;
55007;SDS011;40902;45.116;21.296;2022-12-29T14:50:22;16.52;;;9.77;;
55007;SDS011;40902;45.116;21.296;2022-12-29T14:57:43;25.20;;;15.23;;
55007;SDS011;40902;45.116;21.296;2022-12-29T15:00:17;21.08;;;15.07;;
55007;SDS011;40902;45.116;21.296;2022-12-29T15:02:45;23.70;;;15.00;;
55007;SDS011;40902;45.116;21.296;2022-12-29T15:05:29;23.88;;;15.85;;
55007;SDS011;40902;45.116;21.296;2022-12-29T15:07:56;29.70;;;15.05;;
55007;SDS011;40902;45.116;21.296;2022-12-29T15:10:23;19.95;;;13.23;;
55007;SDS011;40902;45.116;21.296;2022-12-29T15:12:54;20.45;;;13.48;;
55007;SDS011;40902;45.116;21.296;2022-12-29T15:17:46;18.85;;;13.52;;
55007;SDS011;40902;45.116;21.296;2022-12-29T15:22:54;22.45;;;15.98;;
55007;SDS011;40902;45.116;21.296;2022-12-29T15:25:21;19.10;;;14.48;;
55007;SDS011;40902;45.116;21.296;2022-12-29T15:27:48;18.40;;;12.75;;
55007;SDS011;40902;45.116;21.296;2022-12-29T15:30:15;18.92;;;11.70;;
55007;SDS011;40902;45.116;21.296;2022-12-29T15:32:42;18.80;;;10.82;;
55007;SDS011;40902;45.116;21.296;2022-12-29T15:37:53;18.70;;;13.90;;
55007;SDS011;40902;45.116;21.296;2022-12-29T15:40:23;20.25;;;14.60;;
55007;SDS011;40902;45.116;21.296;2022-12-29T15:45:23;17.90;;;11.60;;
55007;SDS011;40902;45.116;21.296;2022-12-29T15:47:51;20.65;;;12.65;;
55007;SDS011;40902;45.116;21.296;2022-12-29T15:50:24;16.98;;;11.02;;
55007;SDS011;40902;45.116;21.296;2022-12-29T15:52:52;19.17;;;13.50;;
55007;SDS011;40902;45.116;21.296;2022-12-29T15:57:47;19.95;;;12.15;;
55007;SDS011;40902;45.116;21.296;2022-12-29T16:02:51;28.02;;;17.15;;
55007;SDS011;40902;45.116;21.296;2022-12-29T16:05:19;23.17;;;15.52;;
55007;SDS011;40902;45.116;21.296;2022-12-29T16:07:55;19.83;;;13.85;;
55007;SDS011;40902;45.116;21.296;2022-12-29T16:10:26;17.88;;;13.68;;
55007;SDS011;40902;45.116;21.296;2022-12-29T16:12:58;21.17;;;13.55;;
55007;SDS011;40902;45.116;21.296;2022-12-29T16:15:26;24.58;;;17.15;;
55007;SDS011;40902;45.116;21.296;2022-12-29T16:17:53;17.92;;;12.27;;
55007;SDS011;40902;45.116;21.296;2022-12-29T16:20:41;21.38;;;14.65;;
55007;SDS011;40902;45.116;21.296;2022-12-29T16:23:10;20.88;;;13.15;;
55007;SDS011;40902;45.116;21.296;2022-12-29T16:25:42;28.48;;;19.50;;
55007;SDS011;40902;45.116;21.296;2022-12-29T16:28:18;54.42;;;29.58;;
55007;SDS011;40902;45.116;21.296;2022-12-29T16:30:45;38.25;;;24.27;;
55007;SDS011;40902;45.116;21.296;2022-12-29T16:33:35;23.67;;;15.05;;
55007;SDS011;40902;45.116;21.296;2022-12-29T16:36:02;22.90;;;15.52;;
55007;SDS011;40902;45.116;21.296;2022-12-29T16:38:33;23.52;;;16.02;;
55007;SDS011;40902;45.116;21.296;2022-12-29T16:41:00;24.17;;;15.45;;
55007;SDS011;40902;45.116;21.296;2022-12-29T16:43:30;21.85;;;14.15;;
55007;SDS011;40902;45.116;21.296;2022-12-29T16:48:27;22.70;;;16.73;;
55007;SDS011;40902;45.116;21.296;2022-12-29T16:53:53;18.95;;;12.25;;
55007;SDS011;40902;45.116;21.296;2022-12-29T16:56:20;21.73;;;14.02;;
55007;SDS011;40902;45.116;21.296;2022-12-29T16:59:00;21.60;;;15.55;;
55007;SDS011;40902;45.116;21.296;2022-12-29T17:01:27;27.45;;;20.65;;
55007;SDS011;40902;45.116;21.296;2022-12-29T17:03:54;29.33;;;21.15;;
55007;SDS011;40902;45.116;21.296;2022-12-29T17:06:22;25.70;;;18.23;;
55007;SDS011;40902;45.116;21.296;2022-12-29T17:08:49;27.15;;;18.73;;
55007;SDS011;40902;45.116;21.296;2022-12-29T17:11:23;24.95;;;15.70;;
55007;SDS011;40902;45.116;21.296;2022-12-29T17:16:52;20.60;;;13.73;;
55007;SDS011;40902;45.116;21.296;2022-12-29T17:19:20;18.25;;;12.77;;
55007;SDS011;40902;45.116;21.296;2022-12-29T17:21:50;19.35;;;13.25;;
55007;SDS011;40902;45.116;21.296;2022-12-29T17:24:17;19.45;;;12.77;;
55007;SDS011;40902;45.116;21.296;2022-12-29T17:26:50;18.35;;;12.98;;
55007;SDS011;40902;45.116;21.296;2022-12-29T17:31:42;22.90;;;16.15;;
55007;SDS011;40902;45.116;21.296;2022-12-29T17:34:10;27.80;;;18.17;;
55007;SDS011;40902;45.116;21.296;2022-12-29T17:36:37;23.92;;;15.35;;
55007;SDS011;40902;45.116;21.296;2022-12-29T17:39:04;19.48;;;14.27;;
55007;SDS011;40902;45.116;21.296;2022-12-29T17:41:31;17.30;;;12.75;;
55007;SDS011;40902;45.116;21.296;2022-12-29T17:43:57;17.48;;;13.27;;
55007;SDS011;40902;45.116;21.296;2022-12-29T17:46:24;24.38;;;13.65;;